Time;durP1;ratioP1;P1;durP2;ratioP2;P2;SDS_P1;SDS_P2;PMS_P1;PMS_P2;Temp;Humidity;BMP_temperature;BMP_pressure;BME280_temperature;BME280_humidity;BME280_pressure;Samples;Min_cycle;Max_cycle;Signal;HPM_P1;HPM_P2
2023/10/09 00:00:55;;;;;;;12.70;8.50;;;;;;;15.03;71.05;96913.66;4987167;28;20931;-70
2023/10/09 00:02:53;;;;;;;11.57;7.57;;;;;;;15.02;70.98;96914.59;4976860;28;20464;-69
2023/10/09 00:05:38;;;;;;;14.07;8.50;;;;;;;14.99;70.91;96912.09;4987616;28;20554;-70
2023/10/09 00:08:04;;;;;;;14.60;9.33;;;;;;;14.93;71.18;96912.44;4987638;28;20416;-70
2023/10/09 00:10:37;;;;;;;10.20;7.00;;;;;;;14.94;70.75;96908.00;4987168;28;20452;-71
2023/10/09 00:13:02;;;;;;;15.43;6.93;;;;;;;14.96;70.55;96898.22;4987772;28;20176;-70
2023/10/09 00:15:32;;;;;;;12.60;6.90;;;;;;;14.88;70.36;96898.63;4987449;28;20409;-71
2023/10/09 00:17:58;;;;;;;16.23;8.00;;;;;;;14.91;69.57;96898.44;4987207;28;20250;-70
2023/10/09 00:20:37;;;;;;;13.60;7.30;;;;;;;14.90;69.07;96894.09;4986878;28;20432;-71
2023/10/09 00:23:04;;;;;;;18.80;6.03;;;;;;;14.91;68.32;96893.16;4987251;28;20200;-70
2023/10/09 00:25:36;;;;;;;16.43;6.83;;;;;;;14.92;67.95;96892.22;4987401;28;20408;-71
2023/10/09 00:28:03;;;;;;;16.43;6.37;;;;;;;14.91;67.72;96887.88;4986587;28;20412;-70
2023/10/09 00:30:30;;;;;;;13.90;7.17;;;;;;;14.86;67.86;96887.28;4986816;28;20530;-68
2023/10/09 00:33:01;;;;;;;11.47;6.20;;;;;;;14.86;67.75;96886.41;4987171;28;20417;-70
2023/10/09 00:35:36;;;;;;;23.70;7.40;;;;;;;14.83;67.77;96876.84;4987336;28;20403;-69
2023/10/09 00:43:35;;;;;;;14.10;7.27;;;;;;;14.67;68.50;96866.25;4987289;28;20495;-69
2023/10/09 00:48:47;;;;;;;13.90;6.70;;;;;;;14.66;68.53;96871.63;4986951;28;20424;-70
2023/10/09 00:51:18;;;;;;;13.17;7.17;;;;;;;14.63;67.96;96869.16;4986834;28;20440;-70
2023/10/09 00:53:53;;;;;;;17.17;6.40;;;;;;;14.60;67.98;96867.53;4986905;28;20415;-70
2023/10/09 00:58:55;;;;;;;10.97;6.73;;;;;;;14.58;67.51;96864.94;4987024;28;20497;-68
2023/10/09 01:01:27;;;;;;;16.93;7.73;;;;;;;14.61;67.39;96872.72;4987038;28;20438;-70
2023/10/09 01:03:52;;;;;;;20.63;8.37;;;;;;;14.51;67.53;96862.69;4987414;28;20491;-73
2023/10/09 01:06:21;;;;;;;22.77;8.43;;;;;;;14.54;67.59;96855.47;4987266;28;20555;-70
2023/10/09 01:09:08;;;;;;;10.10;6.27;;;;;;;14.52;67.47;96861.75;4986918;28;20173;-70
2023/10/09 01:11:34;;;;;;;16.00;8.20;;;;;;;14.57;67.24;96851.81;4987097;28;20455;-70
2023/10/09 01:16:34;;;;;;;13.97;6.33;;;;;;;14.61;66.84;96851.56;4987311;28;20188;-70
2023/10/09 01:19:00;;;;;;;18.27;7.20;;;;;;;14.64;66.63;96844.44;4986647;28;20416;-71
2023/10/09 01:21:26;;;;;;;18.03;8.57;;;;;;;14.56;66.89;96848.31;4986779;28;20232;-70
2023/10/09 01:26:32;;;;;;;9.20;5.87;;;;;;;14.49;66.98;96832.84;4987243;28;20180;-71
2023/10/09 01:29:00;;;;;;;36.37;9.90;;;;;;;14.45;66.77;96833.94;4986508;28;20428;-70
2023/10/09 01:31:37;;;;;;;38.10;10.70;;;;;;;14.47;66.38;96843.50;4986792;28;21290;-70
2023/10/09 01:34:06;;;;;;;23.77;7.60;;;;;;;14.50;66.22;96832.75;4986877;28;20503;-70
2023/10/09 01:36:31;;;;;;;13.27;6.40;;;;;;;14.37;66.49;96831.72;4986776;28;20412;-70
2023/10/09 01:38:59;;;;;;;19.03;8.43;;;;;;;14.40;66.30;96834.19;4988194;28;20505;-70
2023/10/09 01:41:25;;;;;;;16.03;6.40;;;;;;;14.34;66.50;96837.16;4990503;28;20197;-70
2023/10/09 01:43:53;;;;;;;15.87;7.20;;;;;;;14.36;66.35;96837.91;4990005;28;20466;-70
2023/10/09 01:46:19;;;;;;;12.63;6.50;;;;;;;14.34;66.52;96838.00;4990369;28;20562;-71
2023/10/09 01:48:46;;;;;;;12.53;7.57;;;;;;;14.26;66.92;96823.50;4990157;28;20419;-70
2023/10/09 01:51:18;;;;;;;18.50;7.00;;;;;;;14.33;66.38;96824.88;4990700;28;21295;-70
2023/10/09 01:53:56;;;;;;;15.60;6.50;;;;;;;14.30;66.54;96831.19;4990337;28;20818;-69
2023/10/09 01:56:22;;;;;;;11.93;5.60;;;;;;;14.18;66.51;96826.53;4990278;28;20423;-72
2023/10/09 01:58:47;;;;;;;20.63;8.80;;;;;;;14.25;66.73;96824.44;4989825;28;20420;-70
2023/10/09 02:01:14;;;;;;;19.47;6.63;;;;;;;14.29;66.67;96821.56;4989973;28;20196;-71
2023/10/09 02:03:42;;;;;;;17.67;7.40;;;;;;;14.23;67.09;96821.03;4989989;28;20222;-70
2023/10/09 02:09:06;;;;;;;14.13;8.10;;;;;;;14.22;67.00;96817.53;4980415;28;20464;-72
2023/10/09 02:11:41;;;;;;;22.00;9.67;;;;;;;14.22;67.05;96817.53;4990207;28;20946;-69
2023/10/09 02:14:19;;;;;;;17.73;6.87;;;;;;;14.17;67.14;96820.41;4989844;28;20443;-69
2023/10/09 02:17:02;;;;;;;15.47;7.93;;;;;;;14.25;66.86;96817.38;4989737;28;20415;-68
2023/10/09 02:19:34;;;;;;;11.67;6.00;;;;;;;14.18;66.98;96811.53;4970180;28;20455;-67
2023/10/09 02:22:11;;;;;;;17.27;7.50;;;;;;;14.23;66.90;96818.38;4970378;28;20444;-68
2023/10/09 02:24:50;;;;;;;18.73;7.10;;;;;;;14.24;66.83;96813.00;4971176;28;20515;-70
2023/10/09 02:27:20;;;;;;;16.43;8.70;;;;;;;14.24;66.86;96809.50;4969825;28;20424;-69
2023/10/09 02:29:48;;;;;;;15.70;6.93;;;;;;;14.17;67.09;96815.13;4970257;28;20413;-68
2023/10/09 02:32:16;;;;;;;12.20;7.30;;;;;;;14.18;67.20;96802.78;4969755;28;20417;-69
2023/10/09 02:34:46;;;;;;;12.53;7.70;;;;;;;14.19;67.22;96809.75;4970042;28;20174;-68
2023/10/09 02:37:13;;;;;;;15.90;6.97;;;;;;;14.21;67.15;96799.97;4969998;28;20416;-69
2023/10/09 02:39:47;;;;;;;19.63;6.70;;;;;;;14.23;67.24;96800.75;4969727;28;20479;-69
2023/10/09 02:44:46;;;;;;;12.33;7.27;;;;;;;14.17;67.56;96795.78;4970327;28;20503;-68
2023/10/09 02:47:20;;;;;;;17.97;7.73;;;;;;;14.13;67.45;96797.75;4970309;28;20193;-68
2023/10/09 02:49:48;;;;;;;17.40;7.10;;;;;;;14.11;68.17;96794.31;4969696;28;20825;-70
2023/10/09 02:52:18;;;;;;;19.27;6.83;;;;;;;14.14;67.95;96786.22;4970724;28;20433;-72
2023/10/09 02:54:46;;;;;;;15.10;7.07;;;;;;;14.21;68.23;96789.41;4970766;28;20930;-68
2023/10/09 02:57:21;;;;;;;15.20;6.17;;;;;;;14.17;67.92;96779.94;4971068;28;20409;-69
2023/10/09 02:59:47;;;;;;;25.57;7.20;;;;;;;14.09;68.27;96793.53;4971337;28;20412;-68
2023/10/09 03:02:13;;;;;;;10.87;6.97;;;;;;;14.00;68.63;96791.38;4989506;28;20415;-70
2023/10/09 03:04:41;;;;;;;22.93;7.50;;;;;;;14.11;68.18;96791.69;4990160;28;20197;-69
2023/10/09 03:07:07;;;;;;;14.27;7.63;;;;;;;14.05;68.48;96789.34;4989925;28;20173;-67
2023/10/09 03:09:35;;;;;;;13.20;7.83;;;;;;;14.06;68.48;96787.59;4989811;28;20471;-69
2023/10/09 03:12:03;;;;;;;25.47;7.27;;;;;;;14.06;68.39;96785.78;4989935;28;20192;-68
2023/10/09 03:14:35;;;;;;;16.47;7.70;;;;;;;14.01;68.61;96781.66;4989651;28;20404;-68
2023/10/09 03:17:01;;;;;;;16.30;8.87;;;;;;;14.01;68.75;96779.03;4989341;28;20413;-70
2023/10/09 03:19:28;;;;;;;16.00;7.53;;;;;;;14.05;68.91;96784.06;4989281;28;20412;-68
2023/10/09 03:21:57;;;;;;;14.47;6.80;;;;;;;14.04;68.68;96785.00;4989709;28;20440;-69
2023/10/09 03:24:28;;;;;;;11.13;6.30;;;;;;;14.03;68.94;96790.34;4989372;28;20464;-69
2023/10/09 03:26:55;;;;;;;12.33;6.90;;;;;;;14.05;68.80;96788.50;4988914;28;20939;-69
2023/10/09 03:29:21;;;;;;;15.03;6.77;;;;;;;14.07;68.70;96778.72;5003136;28;20428;-68
2023/10/09 03:31:50;;;;;;;17.93;8.40;;;;;;;14.07;68.65;96776.94;4993165;28;20462;-69
2023/10/09 03:34:16;;;;;;;12.43;7.03;;;;;;;14.11;68.46;96775.00;4993934;28;20432;-68
2023/10/09 03:36:43;;;;;;;13.20;7.87;;;;;;;14.13;68.45;96781.91;4982071;28;20832;-71
2023/10/09 03:41:58;;;;;;;14.47;6.77;;;;;;;14.10;68.24;96775.91;4979742;28;20516;-69
2023/10/09 03:44:28;;;;;;;17.30;7.60;;;;;;;14.08;68.51;96773.38;4985311;28;20468;-68
2023/10/09 03:46:54;;;;;;;18.90;7.27;;;;;;;14.08;68.79;96773.38;4987363;28;20416;-71
2023/10/09 03:49:26;;;;;;;14.80;6.77;;;;;;;14.14;68.44;96773.03;4987307;28;20470;-69
2023/10/09 03:51:52;;;;;;;16.43;7.53;;;;;;;14.07;68.51;96773.44;4989130;28;20680;-68
2023/10/09 03:54:22;;;;;;;16.23;7.17;;;;;;;14.11;68.51;96775.84;4988487;28;20420;-67
2023/10/09 03:56:50;;;;;;;20.17;9.97;;;;;;;14.08;68.57;96770.75;4986299;28;20534;-70
2023/10/09 03:59:19;;;;;;;20.07;7.80;;;;;;;14.10;68.82;96774.16;4987658;28;20879;-69
2023/10/09 04:01:46;;;;;;;17.43;7.60;;;;;;;14.09;68.66;96769.78;4986043;28;20460;-69
2023/10/09 04:04:14;;;;;;;16.93;8.40;;;;;;;14.15;68.49;96774.75;4987467;28;20459;-69
2023/10/09 04:06:40;;;;;;;17.83;6.60;;;;;;;14.12;68.63;96764.34;4985362;28;20427;-69
2023/10/09 04:11:46;;;;;;;16.33;7.67;;;;;;;14.14;68.05;96774.84;4984164;28;20505;-70
2023/10/09 04:20:47;;;;;;;15.70;7.17;;;;;;;14.24;66.85;96765.50;4984916;28;20463;-70
2023/10/09 04:22:42;;;;;;;18.10;7.37;;;;;;;14.23;66.85;96765.59;4983088;28;20431;-70
2023/10/09 04:25:14;;;;;;;14.83;8.00;;;;;;;14.15;67.36;96766.84;4983739;28;21094;-69
2023/10/09 04:27:44;;;;;;;20.93;7.50;;;;;;;14.21;67.30;96762.16;4982597;28;21018;-69
2023/10/09 04:30:15;;;;;;;20.53;8.20;;;;;;;14.18;67.09;96764.03;4983753;28;21024;-69
2023/10/09 04:32:44;;;;;;;20.03;7.30;;;;;;;14.16;67.78;96759.78;4983560;28;21336;-70
2023/10/09 04:37:52;;;;;;;13.37;6.33;;;;;;;14.19;67.52;96760.44;4986394;28;21229;-70
2023/10/09 04:43:06;;;;;;;11.63;6.10;;;;;;;14.21;67.52;96759.53;4986478;28;20489;-70
2023/10/09 04:48:10;;;;;;;21.90;8.20;;;;;;;14.34;67.07;96763.25;5006159;28;20493;-67
2023/10/09 04:50:45;;;;;;;17.20;7.20;;;;;;;14.22;67.43;96766.50;5003395;28;20525;-68
2023/10/09 04:55:53;;;;;;;22.63;7.93;;;;;;;14.27;67.08;96767.09;4986488;28;20419;-68
2023/10/09 04:58:25;;;;;;;20.50;8.70;;;;;;;14.25;67.12;96769.84;4986624;28;20443;-70
2023/10/09 05:03:42;;;;;;;12.97;6.30;;;;;;;14.33;65.52;96765.00;4987015;28;20468;-71
2023/10/09 05:06:21;;;;;;;12.53;5.60;;;;;;;14.40;65.29;96774.31;4987034;28;20448;-70
2023/10/09 05:08:54;;;;;;;21.40;7.10;;;;;;;14.36;65.39;96763.97;4986389;28;20423;-70
2023/10/09 05:11:34;;;;;;;33.33;8.73;;;;;;;14.45;65.09;96760.84;4986371;28;20439;-69
2023/10/09 05:14:11;;;;;;;11.73;5.53;;;;;;;14.46;65.16;96757.31;4988775;28;20443;-69
2023/10/09 05:16:44;;;;;;;16.10;6.20;;;;;;;14.36;65.55;96764.88;4990721;28;20412;-70
2023/10/09 05:19:28;;;;;;;20.93;6.17;;;;;;;14.38;65.58;96764.75;4989322;28;21277;-69
2023/10/09 05:21:58;;;;;;;25.37;6.80;;;;;;;14.38;65.86;96773.53;4988693;28;20430;-67
2023/10/09 05:24:26;;;;;;;18.60;6.17;;;;;;;14.39;66.39;96767.31;4988332;28;20474;-69
2023/10/09 05:26:52;;;;;;;21.10;6.97;;;;;;;14.46;66.53;96780.22;4988439;28;20412;-69
2023/10/09 05:37:32;;;;;;;16.90;6.97;;;;;;;14.46;67.73;96767.88;4988735;28;21266;-69
2023/10/09 05:47:53;;;;;;;17.43;7.50;;;;;;;14.58;68.55;96767.22;4988500;28;20427;-70
2023/10/09 06:16:59;;;;;;;23.07;9.07;;;;;;;14.93;68.61;96782.06;4990187;28;20420;-68
2023/10/09 06:29:50;;;;;;;20.23;9.40;;;;;;;15.07;68.25;96783.97;4970423;28;20418;-69
2023/10/09 06:34:46;;;;;;;21.00;7.87;;;;;;;15.09;67.86;96787.38;4970427;28;20402;-70
2023/10/09 06:42:33;;;;;;;18.00;8.20;;;;;;;15.28;67.61;96795.13;4969974;28;20424;-69
2023/10/09 06:45:06;;;;;;;16.87;8.30;;;;;;;15.44;67.08;96798.59;4970169;28;20827;-69
2023/10/09 06:47:41;;;;;;;18.53;8.30;;;;;;;15.52;66.87;96803.44;4969839;28;20949;-69
2023/10/09 06:52:57;;;;;;;15.97;7.30;;;;;;;16.34;63.55;96802.22;4969691;28;20468;-69
2023/10/09 06:55:48;;;;;;;26.17;8.70;;;;;;;16.17;64.23;96795.28;4969880;28;20420;-69
2023/10/09 06:58:23;;;;;;;21.80;7.93;;;;;;;15.91;64.99;96797.69;4969851;28;20413;-69
2023/10/09 07:03:32;;;;;;;18.33;8.20;;;;;;;15.75;66.26;96808.31;4989077;28;20463;-70
2023/10/09 07:06:23;;;;;;;16.50;7.80;;;;;;;15.74;66.09;96811.06;4989205;28;21042;-69
2023/10/09 07:17:01;;;;;;;16.80;9.33;;;;;;;15.64;66.88;96806.25;4989515;28;20399;-69
2023/10/09 07:22:15;;;;;;;17.53;7.60;;;;;;;15.62;67.24;96804.66;4988763;28;20447;-69
2023/10/09 07:24:44;;;;;;;18.33;8.40;;;;;;;15.56;67.33;96808.47;4989013;28;20459;-69
2023/10/09 07:27:13;;;;;;;17.57;8.53;;;;;;;15.62;67.32;96796.72;4988717;28;20507;-68
2023/10/09 07:29:48;;;;;;;17.80;7.27;;;;;;;15.61;67.34;96795.00;4988279;28;20552;-68
2023/10/09 07:32:20;;;;;;;21.03;7.43;;;;;;;15.59;67.51;96807.44;4988827;28;20440;-69
2023/10/09 07:34:52;;;;;;;19.57;8.70;;;;;;;15.70;66.79;96805.06;4989193;28;20507;-70
2023/10/09 07:37:30;;;;;;;16.50;6.93;;;;;;;15.64;67.13;96806.25;4988878;28;20459;-69
2023/10/09 07:39:59;;;;;;;33.80;10.83;;;;;;;15.65;67.15;96812.41;4989126;28;20415;-70
2023/10/09 07:48:04;;;;;;;17.60;7.10;;;;;;;15.75;67.00;96810.09;4988479;28;21137;-70
2023/10/09 07:50:48;;;;;;;22.23;8.47;;;;;;;15.72;67.31;96813.78;4988315;28;20512;-70
2023/10/09 07:53:25;;;;;;;22.80;7.77;;;;;;;15.78;67.04;96812.56;4988613;28;20416;-69
2023/10/09 07:55:56;;;;;;;18.87;8.23;;;;;;;15.76;66.97;96817.13;4988209;28;20462;-69
2023/10/09 07:58:25;;;;;;;20.90;7.47;;;;;;;15.87;66.86;96812.91;4987992;28;20473;-69
2023/10/09 08:03:32;;;;;;;36.17;7.83;;;;;;;15.91;66.71;96807.44;4988371;28;20591;-69
2023/10/09 08:06:29;;;;;;;25.67;8.40;;;;;;;15.82;67.17;96807.00;4988462;28;20414;-69
2023/10/09 08:09:17;;;;;;;17.23;7.87;;;;;;;15.86;66.51;96812.97;4987943;28;20412;-70
2023/10/09 08:17:14;;;;;;;29.00;8.57;;;;;;;15.99;66.27;96816.63;4988043;28;20463;-69
2023/10/09 08:19:53;;;;;;;27.13;7.90;;;;;;;15.98;66.29;96820.19;4987448;28;20408;-69
2023/10/09 08:24:56;;;;;;;30.47;7.83;;;;;;;16.02;66.52;96812.94;4987654;28;20491;-69
2023/10/09 08:27:46;;;;;;;18.50;7.53;;;;;;;16.04;66.31;96826.94;4987746;28;20419;-69
2023/10/09 08:32:42;;;;;;;15.97;7.07;;;;;;;16.08;66.34;96821.34;4987783;28;21150;-69
2023/10/09 08:35:29;;;;;;;18.10;7.43;;;;;;;16.09;66.20;96819.59;4987824;28;20208;-70
2023/10/09 08:37:58;;;;;;;20.60;8.27;;;;;;;16.15;66.17;96827.13;4988112;28;20424;-69
2023/10/09 08:40:33;;;;;;;9.87;6.10;;;;;;;16.21;65.73;96829.44;4987446;28;20432;-68
2023/10/09 08:43:24;;;;;;;28.53;7.10;;;;;;;16.23;65.56;96830.19;4987414;28;20442;-69
2023/10/09 08:45:53;;;;;;;15.63;7.40;;;;;;;16.26;65.42;96813.28;4987422;28;20429;-69
2023/10/09 08:48:21;;;;;;;17.40;7.00;;;;;;;16.33;66.07;96819.06;4986847;28;20412;-69
2023/10/09 08:50:50;;;;;;;20.73;8.23;;;;;;;16.39;65.64;96816.03;4987948;28;20436;-68
2023/10/09 08:53:16;;;;;;;26.97;7.73;;;;;;;16.35;65.66;96823.31;4990539;28;20814;-70
2023/10/09 08:55:43;;;;;;;17.33;8.30;;;;;;;16.36;65.63;96824.16;4987823;28;20412;-69
2023/10/09 08:58:20;;;;;;;16.80;8.10;;;;;;;16.44;66.14;96821.88;4988473;28;20415;-69
2023/10/09 09:00:47;;;;;;;24.03;8.70;;;;;;;16.53;65.80;96831.94;4988097;28;20438;-70
2023/10/09 09:03:16;;;;;;;28.53;7.83;;;;;;;16.46;66.26;96830.59;4988320;28;21168;-71
2023/10/09 09:05:51;;;;;;;14.87;7.60;;;;;;;16.55;66.16;96832.69;4988189;28;20408;-69
2023/10/09 09:08:25;;;;;;;21.27;8.40;;;;;;;16.49;65.89;96825.97;4988020;28;20419;-69
2023/10/09 09:11:30;;;;;;;14.43;7.53;;;;;;;16.54;65.71;96833.66;4987834;28;20562;-67
2023/10/09 09:13:53;;;;;;;19.23;7.03;;;;;;;16.64;65.81;96834.78;4987429;28;20424;-69
2023/10/09 09:16:22;;;;;;;17.77;7.77;;;;;;;16.71;65.43;96833.47;4988122;28;20419;-69
2023/10/09 09:18:56;;;;;;;19.97;6.57;;;;;;;16.69;65.66;96831.84;4987419;28;20741;-70
2023/10/09 09:21:22;;;;;;;16.07;6.77;;;;;;;16.76;65.18;96837.63;4988276;28;20446;-69
2023/10/09 09:24:01;;;;;;;19.20;7.40;;;;;;;16.76;65.29;96832.34;4987960;28;20460;-69
2023/10/09 09:26:38;;;;;;;29.70;10.30;;;;;;;16.87;64.85;96824.59;4988066;28;20426;-69
2023/10/09 09:29:06;;;;;;;23.83;7.53;;;;;;;16.93;64.68;96827.69;4987585;28;20420;-70
2023/10/09 09:31:41;;;;;;;28.60;8.23;;;;;;;16.99;64.46;96836.25;4988009;28;20432;-69
2023/10/09 09:34:16;;;;;;;17.03;7.13;;;;;;;17.12;64.27;96834.50;4987948;28;20902;-68
2023/10/09 09:36:56;;;;;;;11.50;6.60;;;;;;;17.19;64.09;96835.81;4988206;28;20415;-69
2023/10/09 09:39:29;;;;;;;13.57;6.07;;;;;;;17.16;64.57;96841.31;4968266;28;20467;-70
2023/10/09 09:42:13;;;;;;;16.73;7.00;;;;;;;17.20;63.92;96836.69;4968381;28;20441;-70
2023/10/09 09:44:45;;;;;;;16.77;6.77;;;;;;;17.24;63.50;96840.84;4968693;28;20867;-72
2023/10/09 09:47:23;;;;;;;16.47;6.73;;;;;;;17.27;63.45;96844.16;4968349;28;20409;-69
2023/10/09 09:49:52;;;;;;;24.17;7.60;;;;;;;17.30;63.31;96843.94;4967890;28;20411;-71
2023/10/09 09:52:18;;;;;;;16.87;6.67;;;;;;;17.43;63.17;96832.56;4968286;28;20904;-71
2023/10/09 09:54:44;;;;;;;46.57;10.77;;;;;;;17.53;62.63;96836.34;4968432;28;20415;-70
2023/10/09 09:57:15;;;;;;;30.80;8.07;;;;;;;17.51;62.73;96838.22;4968067;28;20224;-69
2023/10/09 09:59:49;;;;;;;35.03;10.10;;;;;;;17.62;62.64;96834.84;4968828;28;20236;-70
2023/10/09 10:02:22;;;;;;;15.97;8.30;;;;;;;17.67;62.31;96838.94;4970072;28;20420;-70
2023/10/09 10:04:53;;;;;;;22.67;7.33;;;;;;;17.75;62.18;96846.38;4971053;28;20456;-70
2023/10/09 10:07:24;;;;;;;14.53;6.77;;;;;;;17.84;61.88;96842.31;4971146;28;20759;-69
2023/10/09 10:09:54;;;;;;;15.57;7.43;;;;;;;17.78;62.22;96847.03;4970809;28;20417;-70
2023/10/09 10:12:46;;;;;;;15.40;6.73;;;;;;;17.92;61.91;96843.50;4970958;28;20413;-69
2023/10/09 10:15:17;;;;;;;25.50;8.03;;;;;;;17.95;61.65;96855.72;4970709;28;20401;-69
2023/10/09 10:18:01;;;;;;;23.03;8.23;;;;;;;18.04;61.60;96846.28;4969830;28;20508;-69
2023/10/09 10:20:32;;;;;;;21.60;6.40;;;;;;;18.04;61.74;96849.78;4970813;28;20858;-69
2023/10/09 10:23:18;;;;;;;17.43;6.33;;;;;;;18.10;61.76;96845.91;4970752;28;20892;-69
2023/10/09 10:25:49;;;;;;;16.17;6.60;;;;;;;18.12;61.48;96849.31;4970207;28;20423;-72
2023/10/09 10:28:42;;;;;;;20.27;6.20;;;;;;;18.22;61.24;96845.06;4970484;28;20415;-69
2023/10/09 10:31:08;;;;;;;25.40;6.73;;;;;;;18.26;60.98;96845.69;4971331;28;20441;-69
2023/10/09 10:33:53;;;;;;;28.50;8.40;;;;;;;18.37;60.90;96846.66;4971357;28;20517;-70
2023/10/09 10:36:26;;;;;;;22.53;6.80;;;;;;;18.40;60.82;96848.25;4970960;28;20413;-70
2023/10/09 10:39:21;;;;;;;23.33;7.93;;;;;;;18.49;60.29;96834.34;4973387;28;20405;-69
2023/10/09 10:41:54;;;;;;;16.87;6.77;;;;;;;18.52;60.56;96841.25;4970747;28;20503;-69
2023/10/09 10:44:36;;;;;;;14.87;6.50;;;;;;;18.69;60.25;96833.00;4972129;28;20459;-69
2023/10/09 10:47:33;;;;;;;19.60;6.83;;;;;;;18.91;59.83;96839.50;4978574;28;20501;-70
2023/10/09 10:52:44;;;;;;;18.87;8.37;;;;;;;18.94;59.77;96840.09;4971277;28;20487;-70
2023/10/09 10:57:55;;;;;;;34.13;9.53;;;;;;;18.82;60.10;96836.50;4969658;28;20336;-70
2023/10/09 11:03:14;;;;;;;31.33;8.70;;;;;;;18.86;60.20;96831.84;4969859;28;21393;-70
2023/10/09 11:05:42;;;;;;;15.63;5.97;;;;;;;18.86;60.42;96829.19;4969863;28;20844;-69
2023/10/09 11:08:10;;;;;;;11.80;5.70;;;;;;;18.82;60.52;96825.88;4969775;28;20409;-69
2023/10/09 11:10:49;;;;;;;15.90;6.33;;;;;;;18.86;60.69;96831.00;4968752;28;20445;-68
2023/10/09 11:13:30;;;;;;;12.33;6.43;;;;;;;18.87;60.71;96830.88;4969641;28;20401;-70
2023/10/09 11:16:14;;;;;;;14.77;6.53;;;;;;;18.80;61.17;96832.25;4969805;28;20417;-70
2023/10/09 11:18:48;;;;;;;16.90;7.37;;;;;;;18.85;61.17;96835.47;4969317;28;20783;-69
2023/10/09 11:26:28;;;;;;;17.37;9.47;;;;;;;19.13;60.69;96828.16;4970528;28;20500;-71
2023/10/09 11:32:05;;;;;;;26.43;7.97;;;;;;;19.27;60.40;96813.88;4937625;28;20539;-70
2023/10/09 11:34:37;;;;;;;15.40;6.27;;;;;;;19.31;60.25;96804.72;4971048;28;20408;-70
2023/10/09 11:39:56;;;;;;;13.87;6.70;;;;;;;19.36;60.50;96798.09;4970665;28;20460;-70
2023/10/09 11:45:19;;;;;;;16.60;7.37;;;;;;;19.37;60.07;96789.16;4966776;28;21000;-69
2023/10/09 11:47:56;;;;;;;16.53;7.37;;;;;;;19.40;60.12;96788.94;4966865;28;20469;-69
2023/10/09 11:50:42;;;;;;;15.83;7.40;;;;;;;19.42;60.09;96791.50;4967039;28;20930;-69
2023/10/09 11:53:09;;;;;;;9.90;5.93;;;;;;;19.46;60.17;96803.59;4955417;28;20443;-68
2023/10/09 11:55:36;;;;;;;9.40;6.33;;;;;;;19.45;60.37;96791.25;4966159;28;20472;-70
2023/10/09 11:58:04;;;;;;;23.30;6.90;;;;;;;19.49;60.47;96795.41;4967135;28;20495;-71
2023/10/09 12:00:32;;;;;;;25.33;8.20;;;;;;;19.46;60.58;96792.94;4962473;28;20858;-70
2023/10/09 12:03:05;;;;;;;13.80;5.07;;;;;;;19.55;60.68;96797.59;4968332;28;21090;-70
2023/10/09 12:05:31;;;;;;;16.00;6.40;;;;;;;19.55;60.42;96796.75;4969098;28;20460;-70
2023/10/09 12:07:58;;;;;;;14.07;6.83;;;;;;;19.52;60.75;96804.97;4968702;28;20908;-69
2023/10/09 12:10:26;;;;;;;17.43;6.07;;;;;;;19.52;60.88;96808.47;4968242;28;21082;-70
2023/10/09 12:12:57;;;;;;;27.87;7.90;;;;;;;19.58;60.60;96802.72;4968397;28;20857;-71
2023/10/09 12:15:23;;;;;;;32.93;7.80;;;;;;;19.59;60.70;96804.41;4968650;28;20409;-70
2023/10/09 12:17:49;;;;;;;16.50;6.60;;;;;;;19.63;60.69;96800.56;4968234;28;20934;-70
2023/10/09 12:20:31;;;;;;;15.20;7.17;;;;;;;19.73;60.63;96798.09;4967921;28;20440;-70
2023/10/09 12:23:04;;;;;;;16.13;5.87;;;;;;;19.82;60.08;96802.72;4967234;28;20277;-69
2023/10/09 12:25:31;;;;;;;24.33;6.80;;;;;;;19.85;60.06;96796.31;4968200;28;20900;-70
2023/10/09 12:28:01;;;;;;;20.60;5.93;;;;;;;19.93;59.76;96798.41;4968092;28;20417;-70
2023/10/09 12:30:28;;;;;;;16.20;7.03;;;;;;;19.97;59.67;96795.41;4967916;28;20432;-70
2023/10/09 12:32:55;;;;;;;20.70;7.80;;;;;;;19.99;59.78;96796.13;4968129;28;20424;-70
2023/10/09 12:35:21;;;;;;;33.20;8.17;;;;;;;20.04;59.99;96793.97;4967962;28;20425;-71
2023/10/09 12:37:47;;;;;;;19.43;7.33;;;;;;;20.02;59.80;96792.38;4968237;28;20433;-72
2023/10/09 12:40:23;;;;;;;14.47;7.30;;;;;;;20.05;59.90;96785.00;4967760;28;20449;-69
2023/10/09 12:42:49;;;;;;;16.30;7.23;;;;;;;20.05;59.98;96781.50;4967971;28;20471;-70
2023/10/09 12:45:17;;;;;;;33.73;6.57;;;;;;;19.96;59.62;96775.06;4968189;28;21353;-69
2023/10/09 12:47:42;;;;;;;19.47;7.30;;;;;;;19.87;60.03;96765.94;4968180;28;20421;-70
2023/10/09 12:50:13;;;;;;;24.83;7.43;;;;;;;19.80;59.99;96764.72;4967232;28;21107;-70
2023/10/09 12:52:39;;;;;;;19.80;6.20;;;;;;;19.74;60.52;96745.69;4967827;28;20209;-69
2023/10/09 12:55:31;;;;;;;12.53;6.63;;;;;;;19.66;62.29;96744.41;4968126;28;20833;-70
2023/10/09 12:58:00;;;;;;;13.23;5.87;;;;;;;19.63;62.97;96773.06;4965381;28;20193;-70
2023/10/09 13:00:26;;;;;;;15.50;6.00;;;;;;;19.58;63.59;96773.44;4964850;28;20464;-71
2023/10/09 13:02:52;;;;;;;14.83;7.37;;;;;;;19.54;64.08;96763.97;4965386;28;20473;-71
2023/10/09 13:05:27;;;;;;;12.90;6.87;;;;;;;19.52;64.43;96749.91;4965339;28;20515;-71
2023/10/09 13:07:53;;;;;;;17.93;6.60;;;;;;;19.51;64.44;96758.00;4965720;28;20597;-69
2023/10/09 13:10:19;;;;;;;20.90;7.37;;;;;;;19.53;64.17;96751.59;4964824;28;20547;-69
2023/10/09 13:12:45;;;;;;;16.20;6.60;;;;;;;19.55;63.81;96746.16;4964915;28;20543;-69
2023/10/09 13:15:11;;;;;;;18.27;6.33;;;;;;;19.61;63.53;96741.25;4965449;28;20432;-70
2023/10/09 13:17:37;;;;;;;21.17;7.10;;;;;;;19.64;63.66;96743.66;4965716;28;20252;-70
2023/10/09 13:20:12;;;;;;;13.77;6.30;;;;;;;19.69;63.59;96731.88;4965101;28;20421;-69
2023/10/09 13:22:41;;;;;;;11.57;5.93;;;;;;;19.70;63.78;96709.59;4970772;28;20413;-69
2023/10/09 13:25:16;;;;;;;19.83;6.80;;;;;;;19.70;63.67;96683.84;4964463;28;20468;-69
2023/10/09 13:27:50;;;;;;;11.73;5.90;;;;;;;19.76;62.99;96682.50;4964162;28;20431;-69
2023/10/09 13:30:21;;;;;;;14.17;5.60;;;;;;;19.74;63.29;96692.41;4964080;28;20440;-68
2023/10/09 13:32:50;;;;;;;10.40;5.20;;;;;;;19.71;63.39;96690.84;4965018;28;20802;-70
2023/10/09 13:35:19;;;;;;;15.33;6.83;;;;;;;19.76;63.03;96690.50;4968292;28;20507;-69
2023/10/09 13:37:56;;;;;;;20.27;6.70;;;;;;;19.78;62.99;96691.22;4970903;28;20467;-70
2023/10/09 13:40:26;;;;;;;24.00;6.53;;;;;;;19.78;62.75;96688.56;4970458;28;20650;-71
2023/10/09 13:43:01;;;;;;;18.93;6.27;;;;;;;19.78;62.66;96694.72;4972724;28;20469;-69
2023/10/09 13:45:27;;;;;;;14.13;5.60;;;;;;;19.82;62.52;96698.88;4978787;28;20423;-70
2023/10/09 13:47:57;;;;;;;13.33;6.00;;;;;;;19.85;62.49;96714.59;4980225;28;20417;-71
2023/10/09 13:50:42;;;;;;;13.70;6.40;;;;;;;19.89;62.39;96712.56;4977517;28;20421;-71
2023/10/09 13:53:10;;;;;;;17.53;6.90;;;;;;;19.93;62.37;96719.34;4971217;28;20770;-70
2023/10/09 13:55:43;;;;;;;15.27;6.30;;;;;;;19.97;61.80;96728.81;4970918;28;20463;-70
2023/10/09 13:58:13;;;;;;;20.97;7.10;;;;;;;20.01;61.93;96740.94;4971486;28;20408;-69
2023/10/09 14:00:42;;;;;;;13.40;5.53;;;;;;;20.05;61.62;96739.69;4970922;28;20805;-70
2023/10/09 14:03:14;;;;;;;15.13;6.77;;;;;;;20.10;61.45;96739.34;4970958;28;20436;-69
2023/10/09 14:06:10;;;;;;;15.27;5.10;;;;;;;20.09;61.47;96735.84;4971258;28;20464;-69
2023/10/09 14:08:28;;;;;;;14.87;5.53;;;;;;;20.09;61.53;96730.50;4970794;28;20453;-71
2023/10/09 14:10:54;;;;;;;20.00;6.47;;;;;;;20.13;61.52;96732.97;4970594;28;20523;-70
2023/10/09 14:13:28;;;;;;;14.80;5.37;;;;;;;20.16;61.32;96735.38;4970902;28;21046;-69
2023/10/09 14:15:54;;;;;;;13.50;7.27;;;;;;;20.20;61.24;96732.38;4970669;28;20715;-70
2023/10/09 14:18:21;;;;;;;22.00;5.63;;;;;;;20.19;60.69;96740.47;4970507;28;20424;-70
2023/10/09 14:20:46;;;;;;;14.70;5.30;;;;;;;20.19;60.71;96735.97;4970571;28;21356;-70
2023/10/09 14:23:20;;;;;;;25.03;6.43;;;;;;;20.18;60.85;96736.13;4970447;28;20420;-70
2023/10/09 14:25:49;;;;;;;18.43;6.07;;;;;;;20.21;60.42;96735.88;4970587;28;20177;-69
2023/10/09 14:28:18;;;;;;;14.80;5.57;;;;;;;20.30;60.57;96732.50;4970487;28;20421;-71